SCOL weather

Refugio del Lago Airport
Puyehue, Los Lagos Region, Chile

Public forecast

Using degrees Celsius for public forecast. Weather courtesy of forecast.io.

METAR (pilot weather report)

Closest report is Cañal Bajo Carlos - Hott Siebert Airport, 32.9 nm (61.0 km) W. Retrieved 2019/07/20 17:00 UTC (45 minutes ago):

SCJO 201700Z VRB03KT 3000 RA BKN010 OVC020 05/04 Q0997

TAF (pilot weather forecast)

Closest forecast is Cañal Bajo Carlos - Hott Siebert Airport, 32.9 nm (61.0 km) W. Retrieved 2019/07/20 12:00 UTC (6 hours ago):

TAF SCJO 201129Z 2012/2100 01007KT 7000 RA SCT015 OVC030 TX08/2017Z TN05/2023Z BECMG 2017/2019 34004KT 9999 NSW BKN040 TEMPO 2020/2124 02012KT 8000 -SHRA BKN025